sensor_id;sensor_type;location;lat;lon;timestamp;P1;durP1;ratioP1;P2;durP2;ratioP2
22289;SDS011;11313;50.116;8.424;2023-07-09T00:01:47;4.75;;;3.20;;
22289;SDS011;11313;50.116;8.424;2023-07-09T00:04:13;4.00;;;2.90;;
22289;SDS011;11313;50.116;8.424;2023-07-09T00:06:39;5.20;;;3.10;;
22289;SDS011;11313;50.116;8.424;2023-07-09T00:09:06;4.50;;;3.03;;
22289;SDS011;11313;50.116;8.424;2023-07-09T00:11:38;5.03;;;2.78;;
22289;SDS011;11313;50.116;8.424;2023-07-09T00:14:04;4.40;;;3.30;;
22289;SDS011;11313;50.116;8.424;2023-07-09T00:16:30;5.15;;;2.90;;
22289;SDS011;11313;50.116;8.424;2023-07-09T00:18:56;4.72;;;3.08;;
22289;SDS011;11313;50.116;8.424;2023-07-09T00:21:22;5.57;;;2.88;;
22289;SDS011;11313;50.116;8.424;2023-07-09T00:23:47;4.38;;;3.05;;
22289;SDS011;11313;50.116;8.424;2023-07-09T00:26:16;4.32;;;2.90;;
22289;SDS011;11313;50.116;8.424;2023-07-09T00:28:43;3.97;;;2.72;;
22289;SDS011;11313;50.116;8.424;2023-07-09T00:31:10;5.00;;;2.65;;
22289;SDS011;11313;50.116;8.424;2023-07-09T00:33:38;5.00;;;2.75;;
22289;SDS011;11313;50.116;8.424;2023-07-09T00:36:04;4.18;;;2.90;;
22289;SDS011;11313;50.116;8.424;2023-07-09T00:38:39;5.05;;;2.90;;
22289;SDS011;11313;50.116;8.424;2023-07-09T00:41:06;4.05;;;2.90;;
22289;SDS011;11313;50.116;8.424;2023-07-09T00:43:43;4.82;;;2.80;;
22289;SDS011;11313;50.116;8.424;2023-07-09T00:48:48;5.18;;;2.78;;
22289;SDS011;11313;50.116;8.424;2023-07-09T00:51:19;5.10;;;2.90;;
22289;SDS011;11313;50.116;8.424;2023-07-09T00:53:48;3.33;;;2.65;;
22289;SDS011;11313;50.116;8.424;2023-07-09T00:56:17;5.22;;;3.08;;
22289;SDS011;11313;50.116;8.424;2023-07-09T00:59:00;3.92;;;2.70;;
22289;SDS011;11313;50.116;8.424;2023-07-09T01:01:29;3.95;;;2.50;;
22289;SDS011;11313;50.116;8.424;2023-07-09T01:03:57;4.40;;;2.80;;
22289;SDS011;11313;50.116;8.424;2023-07-09T01:06:31;4.28;;;2.80;;
22289;SDS011;11313;50.116;8.424;2023-07-09T01:09:00;4.93;;;2.55;;
22289;SDS011;11313;50.116;8.424;2023-07-09T01:11:28;4.85;;;2.72;;
22289;SDS011;11313;50.116;8.424;2023-07-09T01:13:55;3.25;;;2.53;;
22289;SDS011;11313;50.116;8.424;2023-07-09T01:16:24;4.60;;;2.90;;
22289;SDS011;11313;50.116;8.424;2023-07-09T01:18:52;5.75;;;2.70;;
22289;SDS011;11313;50.116;8.424;2023-07-09T01:21:18;3.75;;;2.70;;
22289;SDS011;11313;50.116;8.424;2023-07-09T01:23:45;3.58;;;2.65;;
22289;SDS011;11313;50.116;8.424;2023-07-09T01:26:12;3.15;;;2.63;;
22289;SDS011;11313;50.116;8.424;2023-07-09T01:28:40;3.75;;;2.67;;
22289;SDS011;11313;50.116;8.424;2023-07-09T01:31:12;4.20;;;2.75;;
22289;SDS011;11313;50.116;8.424;2023-07-09T01:33:40;4.25;;;2.72;;
22289;SDS011;11313;50.116;8.424;2023-07-09T01:36:07;5.03;;;2.80;;
22289;SDS011;11313;50.116;8.424;2023-07-09T01:38:34;3.45;;;2.78;;
22289;SDS011;11313;50.116;8.424;2023-07-09T01:41:00;3.17;;;2.42;;
22289;SDS011;11313;50.116;8.424;2023-07-09T01:43:27;3.28;;;2.58;;
22289;SDS011;11313;50.116;8.424;2023-07-09T01:45:53;3.00;;;2.45;;
22289;SDS011;11313;50.116;8.424;2023-07-09T01:48:22;3.65;;;2.28;;
22289;SDS011;11313;50.116;8.424;2023-07-09T01:50:49;3.25;;;2.47;;
22289;SDS011;11313;50.116;8.424;2023-07-09T01:53:16;3.05;;;2.50;;
22289;SDS011;11313;50.116;8.424;2023-07-09T01:55:44;3.13;;;2.53;;
22289;SDS011;11313;50.116;8.424;2023-07-09T01:58:10;4.95;;;2.78;;
22289;SDS011;11313;50.116;8.424;2023-07-09T02:00:36;3.38;;;2.50;;
22289;SDS011;11313;50.116;8.424;2023-07-09T02:03:02;3.67;;;2.40;;
22289;SDS011;11313;50.116;8.424;2023-07-09T02:05:30;4.00;;;2.50;;
22289;SDS011;11313;50.116;8.424;2023-07-09T02:07:57;3.53;;;2.40;;
22289;SDS011;11313;50.116;8.424;2023-07-09T02:10:22;3.28;;;2.70;;
22289;SDS011;11313;50.116;8.424;2023-07-09T02:12:48;3.25;;;2.50;;
22289;SDS011;11313;50.116;8.424;2023-07-09T02:15:14;3.45;;;2.60;;
22289;SDS011;11313;50.116;8.424;2023-07-09T02:17:40;4.38;;;2.70;;
22289;SDS011;11313;50.116;8.424;2023-07-09T02:20:07;3.13;;;2.25;;
22289;SDS011;11313;50.116;8.424;2023-07-09T02:22:35;3.53;;;2.63;;
22289;SDS011;11313;50.116;8.424;2023-07-09T02:25:01;2.80;;;2.47;;
22289;SDS011;11313;50.116;8.424;2023-07-09T02:27:27;3.38;;;2.50;;
22289;SDS011;11313;50.116;8.424;2023-07-09T02:29:53;2.83;;;2.33;;
22289;SDS011;11313;50.116;8.424;2023-07-09T02:32:20;3.47;;;2.70;;
22289;SDS011;11313;50.116;8.424;2023-07-09T02:34:53;3.20;;;2.63;;
22289;SDS011;11313;50.116;8.424;2023-07-09T02:37:20;3.75;;;2.78;;
22289;SDS011;11313;50.116;8.424;2023-07-09T02:39:47;3.13;;;2.38;;
22289;SDS011;11313;50.116;8.424;2023-07-09T02:42:14;2.78;;;2.35;;
22289;SDS011;11313;50.116;8.424;2023-07-09T02:44:42;4.53;;;2.30;;
22289;SDS011;11313;50.116;8.424;2023-07-09T02:47:08;2.83;;;2.10;;
22289;SDS011;11313;50.116;8.424;2023-07-09T02:49:34;3.55;;;2.20;;
22289;SDS011;11313;50.116;8.424;2023-07-09T02:52:00;3.40;;;2.22;;
22289;SDS011;11313;50.116;8.424;2023-07-09T02:54:26;3.35;;;2.58;;
22289;SDS011;11313;50.116;8.424;2023-07-09T02:56:52;3.25;;;2.33;;
22289;SDS011;11313;50.116;8.424;2023-07-09T02:59:17;4.75;;;2.40;;
22289;SDS011;11313;50.116;8.424;2023-07-09T03:01:43;3.53;;;2.30;;
22289;SDS011;11313;50.116;8.424;2023-07-09T03:04:08;3.05;;;2.40;;
22289;SDS011;11313;50.116;8.424;2023-07-09T03:06:35;5.65;;;2.58;;
22289;SDS011;11313;50.116;8.424;2023-07-09T03:09:02;3.30;;;2.47;;
22289;SDS011;11313;50.116;8.424;2023-07-09T03:11:29;4.30;;;2.50;;
22289;SDS011;11313;50.116;8.424;2023-07-09T03:13:56;3.97;;;2.30;;
22289;SDS011;11313;50.116;8.424;2023-07-09T03:16:32;2.50;;;2.30;;
22289;SDS011;11313;50.116;8.424;2023-07-09T03:18:58;4.13;;;2.33;;
22289;SDS011;11313;50.116;8.424;2023-07-09T03:21:25;4.25;;;2.20;;
22289;SDS011;11313;50.116;8.424;2023-07-09T03:23:52;3.33;;;2.72;;
22289;SDS011;11313;50.116;8.424;2023-07-09T03:26:18;3.47;;;2.22;;
22289;SDS011;11313;50.116;8.424;2023-07-09T03:28:44;3.20;;;2.33;;
22289;SDS011;11313;50.116;8.424;2023-07-09T03:31:09;3.08;;;2.50;;
22289;SDS011;11313;50.116;8.424;2023-07-09T03:33:35;4.35;;;2.58;;
22289;SDS011;11313;50.116;8.424;2023-07-09T03:36:01;3.17;;;2.55;;
22289;SDS011;11313;50.116;8.424;2023-07-09T03:38:26;4.45;;;2.72;;
22289;SDS011;11313;50.116;8.424;2023-07-09T03:40:52;2.95;;;2.50;;
22289;SDS011;11313;50.116;8.424;2023-07-09T03:43:19;2.88;;;2.38;;
22289;SDS011;11313;50.116;8.424;2023-07-09T03:45:45;4.00;;;2.50;;
22289;SDS011;11313;50.116;8.424;2023-07-09T03:48:12;3.58;;;2.47;;
22289;SDS011;11313;50.116;8.424;2023-07-09T03:50:39;3.10;;;2.40;;
22289;SDS011;11313;50.116;8.424;2023-07-09T03:53:04;3.90;;;2.20;;
22289;SDS011;11313;50.116;8.424;2023-07-09T03:55:30;2.40;;;2.20;;
22289;SDS011;11313;50.116;8.424;2023-07-09T03:57:56;2.70;;;2.22;;
22289;SDS011;11313;50.116;8.424;2023-07-09T04:00:22;3.08;;;2.13;;
22289;SDS011;11313;50.116;8.424;2023-07-09T04:02:49;2.60;;;2.30;;
22289;SDS011;11313;50.116;8.424;2023-07-09T04:05:16;3.92;;;2.38;;
22289;SDS011;11313;50.116;8.424;2023-07-09T04:07:42;3.55;;;2.45;;
22289;SDS011;11313;50.116;8.424;2023-07-09T04:10:08;2.55;;;2.10;;
22289;SDS011;11313;50.116;8.424;2023-07-09T04:12:34;2.80;;;2.30;;
22289;SDS011;11313;50.116;8.424;2023-07-09T04:15:01;2.85;;;2.45;;
22289;SDS011;11313;50.116;8.424;2023-07-09T04:17:28;3.30;;;2.40;;
22289;SDS011;11313;50.116;8.424;2023-07-09T04:19:53;2.70;;;2.05;;
22289;SDS011;11313;50.116;8.424;2023-07-09T04:22:19;3.58;;;2.33;;
22289;SDS011;11313;50.116;8.424;2023-07-09T04:24:44;2.67;;;2.13;;
22289;SDS011;11313;50.116;8.424;2023-07-09T04:27:10;2.97;;;2.30;;
22289;SDS011;11313;50.116;8.424;2023-07-09T04:29:38;3.63;;;2.38;;
22289;SDS011;11313;50.116;8.424;2023-07-09T04:32:05;3.38;;;2.40;;
22289;SDS011;11313;50.116;8.424;2023-07-09T04:34:31;2.67;;;2.17;;
22289;SDS011;11313;50.116;8.424;2023-07-09T04:36:56;3.33;;;2.30;;
22289;SDS011;11313;50.116;8.424;2023-07-09T04:39:22;3.33;;;2.30;;
22289;SDS011;11313;50.116;8.424;2023-07-09T04:41:48;3.05;;;2.28;;
22289;SDS011;11313;50.116;8.424;2023-07-09T04:44:13;3.85;;;2.38;;
22289;SDS011;11313;50.116;8.424;2023-07-09T04:46:39;2.95;;;2.22;;
22289;SDS011;11313;50.116;8.424;2023-07-09T04:49:04;3.88;;;2.65;;
22289;SDS011;11313;50.116;8.424;2023-07-09T04:51:30;3.30;;;2.20;;
22289;SDS011;11313;50.116;8.424;2023-07-09T04:53:55;2.80;;;2.33;;
22289;SDS011;11313;50.116;8.424;2023-07-09T04:56:21;2.97;;;2.40;;
22289;SDS011;11313;50.116;8.424;2023-07-09T04:58:47;2.90;;;2.00;;
22289;SDS011;11313;50.116;8.424;2023-07-09T05:01:13;3.40;;;2.20;;
22289;SDS011;11313;50.116;8.424;2023-07-09T05:03:38;3.42;;;2.20;;
22289;SDS011;11313;50.116;8.424;2023-07-09T05:06:04;2.35;;;2.05;;
22289;SDS011;11313;50.116;8.424;2023-07-09T05:08:29;2.60;;;2.08;;
22289;SDS011;11313;50.116;8.424;2023-07-09T05:10:56;3.15;;;2.20;;
22289;SDS011;11313;50.116;8.424;2023-07-09T05:13:23;3.28;;;2.20;;
22289;SDS011;11313;50.116;8.424;2023-07-09T05:15:49;3.35;;;2.38;;
22289;SDS011;11313;50.116;8.424;2023-07-09T05:18:15;2.42;;;1.95;;
22289;SDS011;11313;50.116;8.424;2023-07-09T05:20:41;3.85;;;2.10;;
22289;SDS011;11313;50.116;8.424;2023-07-09T05:23:08;3.42;;;2.53;;
22289;SDS011;11313;50.116;8.424;2023-07-09T05:25:34;3.28;;;2.15;;
22289;SDS011;11313;50.116;8.424;2023-07-09T05:27:59;4.55;;;2.15;;
22289;SDS011;11313;50.116;8.424;2023-07-09T05:30:25;3.22;;;2.17;;
22289;SDS011;11313;50.116;8.424;2023-07-09T05:32:51;2.60;;;2.08;;
22289;SDS011;11313;50.116;8.424;2023-07-09T05:35:18;2.85;;;2.35;;
22289;SDS011;11313;50.116;8.424;2023-07-09T05:37:44;5.00;;;2.20;;
22289;SDS011;11313;50.116;8.424;2023-07-09T05:40:09;3.17;;;2.17;;
22289;SDS011;11313;50.116;8.424;2023-07-09T05:42:35;7.25;;;2.20;;
22289;SDS011;11313;50.116;8.424;2023-07-09T05:45:00;3.53;;;1.90;;
22289;SDS011;11313;50.116;8.424;2023-07-09T05:47:26;3.67;;;2.08;;
22289;SDS011;11313;50.116;8.424;2023-07-09T05:49:52;3.13;;;2.00;;
22289;SDS011;11313;50.116;8.424;2023-07-09T05:52:18;3.75;;;2.22;;
22289;SDS011;11313;50.116;8.424;2023-07-09T05:54:45;5.82;;;2.10;;
22289;SDS011;11313;50.116;8.424;2023-07-09T05:57:13;3.00;;;2.08;;
22289;SDS011;11313;50.116;8.424;2023-07-09T05:59:38;5.82;;;1.90;;
22289;SDS011;11313;50.116;8.424;2023-07-09T06:02:04;2.97;;;1.85;;
22289;SDS011;11313;50.116;8.424;2023-07-09T06:04:32;6.05;;;2.22;;
22289;SDS011;11313;50.116;8.424;2023-07-09T06:06:57;4.53;;;2.03;;
22289;SDS011;11313;50.116;8.424;2023-07-09T06:09:23;3.10;;;2.10;;
22289;SDS011;11313;50.116;8.424;2023-07-09T06:11:49;6.32;;;2.13;;
22289;SDS011;11313;50.116;8.424;2023-07-09T06:14:14;5.15;;;2.25;;
22289;SDS011;11313;50.116;8.424;2023-07-09T06:16:41;2.72;;;2.03;;
22289;SDS011;11313;50.116;8.424;2023-07-09T06:19:08;7.32;;;2.17;;
22289;SDS011;11313;50.116;8.424;2023-07-09T06:21:34;6.13;;;2.20;;
22289;SDS011;11313;50.116;8.424;2023-07-09T06:24:00;5.07;;;2.20;;
22289;SDS011;11313;50.116;8.424;2023-07-09T06:26:25;4.65;;;2.33;;
22289;SDS011;11313;50.116;8.424;2023-07-09T06:28:51;7.43;;;2.40;;
22289;SDS011;11313;50.116;8.424;2023-07-09T06:31:16;8.77;;;2.40;;
22289;SDS011;11313;50.116;8.424;2023-07-09T06:33:44;10.25;;;2.20;;
22289;SDS011;11313;50.116;8.424;2023-07-09T06:36:09;8.25;;;2.85;;
22289;SDS011;11313;50.116;8.424;2023-07-09T06:38:34;11.35;;;2.55;;
22289;SDS011;11313;50.116;8.424;2023-07-09T06:41:00;12.77;;;2.75;;
22289;SDS011;11313;50.116;8.424;2023-07-09T06:43:26;16.25;;;2.60;;
22289;SDS011;11313;50.116;8.424;2023-07-09T06:45:53;10.38;;;2.40;;
22289;SDS011;11313;50.116;8.424;2023-07-09T06:48:20;10.13;;;2.67;;
22289;SDS011;11313;50.116;8.424;2023-07-09T06:50:47;8.40;;;2.45;;
22289;SDS011;11313;50.116;8.424;2023-07-09T06:53:12;9.30;;;2.80;;
22289;SDS011;11313;50.116;8.424;2023-07-09T06:55:38;17.20;;;2.92;;
22289;SDS011;11313;50.116;8.424;2023-07-09T06:58:04;9.25;;;2.97;;
22289;SDS011;11313;50.116;8.424;2023-07-09T07:00:29;6.88;;;2.60;;
22289;SDS011;11313;50.116;8.424;2023-07-09T07:02:55;9.32;;;3.05;;
22289;SDS011;11313;50.116;8.424;2023-07-09T07:05:20;6.88;;;2.60;;
22289;SDS011;11313;50.116;8.424;2023-07-09T07:07:46;12.18;;;3.05;;
22289;SDS011;11313;50.116;8.424;2023-07-09T07:10:12;7.03;;;3.15;;
22289;SDS011;11313;50.116;8.424;2023-07-09T07:12:44;6.78;;;2.95;;
22289;SDS011;11313;50.116;8.424;2023-07-09T07:15:12;6.72;;;3.50;;
22289;SDS011;11313;50.116;8.424;2023-07-09T07:17:39;7.82;;;2.75;;
22289;SDS011;11313;50.116;8.424;2023-07-09T07:20:05;7.68;;;2.90;;
22289;SDS011;11313;50.116;8.424;2023-07-09T07:22:32;6.43;;;2.80;;
22289;SDS011;11313;50.116;8.424;2023-07-09T07:24:58;15.95;;;3.40;;
22289;SDS011;11313;50.116;8.424;2023-07-09T07:27:23;10.55;;;3.33;;
22289;SDS011;11313;50.116;8.424;2023-07-09T07:29:48;12.38;;;3.90;;
22289;SDS011;11313;50.116;8.424;2023-07-09T07:32:14;6.30;;;3.05;;
22289;SDS011;11313;50.116;8.424;2023-07-09T07:34:40;16.95;;;4.10;;
22289;SDS011;11313;50.116;8.424;2023-07-09T07:37:05;17.52;;;3.85;;
22289;SDS011;11313;50.116;8.424;2023-07-09T07:39:31;12.50;;;3.90;;
22289;SDS011;11313;50.116;8.424;2023-07-09T07:41:56;11.52;;;3.80;;
22289;SDS011;11313;50.116;8.424;2023-07-09T07:44:22;9.90;;;3.42;;
22289;SDS011;11313;50.116;8.424;2023-07-09T07:46:48;8.88;;;3.78;;
22289;SDS011;11313;50.116;8.424;2023-07-09T07:49:13;15.90;;;3.85;;
22289;SDS011;11313;50.116;8.424;2023-07-09T07:51:39;10.88;;;3.58;;
22289;SDS011;11313;50.116;8.424;2023-07-09T07:54:05;10.43;;;3.55;;
22289;SDS011;11313;50.116;8.424;2023-07-09T07:56:31;10.18;;;4.00;;
22289;SDS011;11313;50.116;8.424;2023-07-09T07:58:57;10.25;;;3.65;;
22289;SDS011;11313;50.116;8.424;2023-07-09T08:01:22;8.43;;;3.80;;
22289;SDS011;11313;50.116;8.424;2023-07-09T08:03:48;11.40;;;3.75;;
22289;SDS011;11313;50.116;8.424;2023-07-09T08:06:13;7.88;;;3.22;;
22289;SDS011;11313;50.116;8.424;2023-07-09T08:08:39;10.02;;;3.55;;
22289;SDS011;11313;50.116;8.424;2023-07-09T08:11:05;7.40;;;3.70;;
22289;SDS011;11313;50.116;8.424;2023-07-09T08:13:32;8.48;;;3.88;;
22289;SDS011;11313;50.116;8.424;2023-07-09T08:15:59;8.98;;;3.40;;
22289;SDS011;11313;50.116;8.424;2023-07-09T08:18:25;9.40;;;3.63;;
22289;SDS011;11313;50.116;8.424;2023-07-09T08:20:50;7.60;;;3.53;;
22289;SDS011;11313;50.116;8.424;2023-07-09T08:23:16;12.32;;;3.83;;
22289;SDS011;11313;50.116;8.424;2023-07-09T08:25:41;11.02;;;3.35;;
22289;SDS011;11313;50.116;8.424;2023-07-09T08:28:07;8.95;;;3.80;;
22289;SDS011;11313;50.116;8.424;2023-07-09T08:30:33;10.77;;;3.58;;
22289;SDS011;11313;50.116;8.424;2023-07-09T08:32:59;8.98;;;3.65;;
22289;SDS011;11313;50.116;8.424;2023-07-09T08:35:25;9.65;;;3.92;;
22289;SDS011;11313;50.116;8.424;2023-07-09T08:37:51;11.77;;;3.47;;
22289;SDS011;11313;50.116;8.424;2023-07-09T08:40:16;13.20;;;4.03;;
22289;SDS011;11313;50.116;8.424;2023-07-09T08:42:43;11.10;;;3.50;;
22289;SDS011;11313;50.116;8.424;2023-07-09T08:47:42;8.82;;;3.70;;
22289;SDS011;11313;50.116;8.424;2023-07-09T08:50:21;7.68;;;3.10;;
22289;SDS011;11313;50.116;8.424;2023-07-09T08:52:50;8.95;;;3.30;;
22289;SDS011;11313;50.116;8.424;2023-07-09T08:55:21;7.93;;;3.75;;
22289;SDS011;11313;50.116;8.424;2023-07-09T08:57:52;7.68;;;3.60;;
22289;SDS011;11313;50.116;8.424;2023-07-09T09:00:29;8.93;;;3.13;;
22289;SDS011;11313;50.116;8.424;2023-07-09T09:02:58;7.40;;;3.30;;
22289;SDS011;11313;50.116;8.424;2023-07-09T09:05:27;8.35;;;3.60;;
22289;SDS011;11313;50.116;8.424;2023-07-09T09:10:53;9.75;;;3.72;;
22289;SDS011;11313;50.116;8.424;2023-07-09T09:13:25;5.85;;;2.90;;
22289;SDS011;11313;50.116;8.424;2023-07-09T09:15:54;7.45;;;3.78;;
22289;SDS011;11313;50.116;8.424;2023-07-09T09:18:25;7.80;;;3.63;;
22289;SDS011;11313;50.116;8.424;2023-07-09T09:20:54;7.90;;;3.58;;
22289;SDS011;11313;50.116;8.424;2023-07-09T09:23:29;5.90;;;3.47;;
22289;SDS011;11313;50.116;8.424;2023-07-09T09:26:02;6.32;;;3.65;;
22289;SDS011;11313;50.116;8.424;2023-07-09T09:28:40;7.82;;;3.53;;
22289;SDS011;11313;50.116;8.424;2023-07-09T09:31:07;8.48;;;3.38;;
22289;SDS011;11313;50.116;8.424;2023-07-09T09:33:37;5.97;;;3.33;;
22289;SDS011;11313;50.116;8.424;2023-07-09T09:36:11;5.93;;;3.10;;
22289;SDS011;11313;50.116;8.424;2023-07-09T09:38:44;7.10;;;3.40;;
22289;SDS011;11313;50.116;8.424;2023-07-09T09:41:14;6.00;;;3.38;;
22289;SDS011;11313;50.116;8.424;2023-07-09T09:43:43;6.70;;;3.42;;
22289;SDS011;11313;50.116;8.424;2023-07-09T09:46:12;6.35;;;3.58;;
22289;SDS011;11313;50.116;8.424;2023-07-09T09:48:48;6.45;;;3.42;;
22289;SDS011;11313;50.116;8.424;2023-07-09T09:51:16;5.20;;;3.38;;
22289;SDS011;11313;50.116;8.424;2023-07-09T09:53:49;5.88;;;3.40;;
22289;SDS011;11313;50.116;8.424;2023-07-09T09:56:26;6.68;;;3.30;;
22289;SDS011;11313;50.116;8.424;2023-07-09T09:58:52;4.90;;;3.20;;
22289;SDS011;11313;50.116;8.424;2023-07-09T10:01:19;6.65;;;3.55;;
22289;SDS011;11313;50.116;8.424;2023-07-09T10:03:47;8.57;;;3.58;;
22289;SDS011;11313;50.116;8.424;2023-07-09T10:06:21;5.85;;;3.50;;
22289;SDS011;11313;50.116;8.424;2023-07-09T10:11:44;6.80;;;3.05;;
22289;SDS011;11313;50.116;8.424;2023-07-09T10:14:33;4.78;;;3.20;;
22289;SDS011;11313;50.116;8.424;2023-07-09T10:17:05;5.18;;;3.33;;
22289;SDS011;11313;50.116;8.424;2023-07-09T10:22:40;4.43;;;2.67;;
22289;SDS011;11313;50.116;8.424;2023-07-09T10:25:09;5.15;;;3.13;;
22289;SDS011;11313;50.116;8.424;2023-07-09T10:27:45;4.82;;;3.10;;
22289;SDS011;11313;50.116;8.424;2023-07-09T10:32:55;4.95;;;2.67;;
22289;SDS011;11313;50.116;8.424;2023-07-09T10:38:51;3.97;;;3.08;;
22289;SDS011;11313;50.116;8.424;2023-07-09T10:41:27;5.13;;;2.80;;
22289;SDS011;11313;50.116;8.424;2023-07-09T10:43:57;4.85;;;2.92;;
22289;SDS011;11313;50.116;8.424;2023-07-09T10:46:31;4.55;;;3.05;;
22289;SDS011;11313;50.116;8.424;2023-07-09T10:48:59;6.03;;;2.83;;
22289;SDS011;11313;50.116;8.424;2023-07-09T10:51:29;5.15;;;2.95;;
22289;SDS011;11313;50.116;8.424;2023-07-09T10:54:22;4.38;;;2.97;;
22289;SDS011;11313;50.116;8.424;2023-07-09T11:01:02;5.10;;;3.03;;
22289;SDS011;11313;50.116;8.424;2023-07-09T11:07:03;5.43;;;3.10;;
22289;SDS011;11313;50.116;8.424;2023-07-09T11:10:13;5.05;;;2.85;;
22289;SDS011;11313;50.116;8.424;2023-07-09T11:13:42;5.43;;;3.15;;
22289;SDS011;11313;50.116;8.424;2023-07-09T11:16:40;4.60;;;3.08;;
22289;SDS011;11313;50.116;8.424;2023-07-09T11:26:49;4.05;;;2.63;;
22289;SDS011;11313;50.116;8.424;2023-07-09T11:35:51;5.00;;;2.67;;
22289;SDS011;11313;50.116;8.424;2023-07-09T11:38:21;4.70;;;2.72;;
22289;SDS011;11313;50.116;8.424;2023-07-09T11:40:49;5.10;;;3.10;;
22289;SDS011;11313;50.116;8.424;2023-07-09T11:45:58;4.28;;;2.70;;
22289;SDS011;11313;50.116;8.424;2023-07-09T11:48:32;5.18;;;2.90;;
22289;SDS011;11313;50.116;8.424;2023-07-09T11:51:08;5.80;;;3.25;;
22289;SDS011;11313;50.116;8.424;2023-07-09T11:56:18;4.03;;;2.70;;
22289;SDS011;11313;50.116;8.424;2023-07-09T11:59:17;4.75;;;3.05;;
22289;SDS011;11313;50.116;8.424;2023-07-09T12:01:38;4.75;;;3.10;;
22289;SDS011;11313;50.116;8.424;2023-07-09T12:04:12;6.22;;;3.08;;
22289;SDS011;11313;50.116;8.424;2023-07-09T12:06:40;6.82;;;2.92;;
22289;SDS011;11313;50.116;8.424;2023-07-09T12:09:06;6.97;;;3.00;;
22289;SDS011;11313;50.116;8.424;2023-07-09T12:11:44;5.43;;;3.47;;
22289;SDS011;11313;50.116;8.424;2023-07-09T12:14:16;5.65;;;3.00;;
22289;SDS011;11313;50.116;8.424;2023-07-09T12:16:47;7.55;;;3.00;;
22289;SDS011;11313;50.116;8.424;2023-07-09T12:19:16;8.75;;;3.47;;
22289;SDS011;11313;50.116;8.424;2023-07-09T12:21:45;6.10;;;3.08;;
22289;SDS011;11313;50.116;8.424;2023-07-09T12:24:24;5.93;;;2.70;;
22289;SDS011;11313;50.116;8.424;2023-07-09T12:26:57;6.05;;;3.22;;
22289;SDS011;11313;50.116;8.424;2023-07-09T12:29:27;7.90;;;2.78;;
22289;SDS011;11313;50.116;8.424;2023-07-09T12:31:57;7.22;;;2.95;;
22289;SDS011;11313;50.116;8.424;2023-07-09T12:34:24;6.90;;;2.87;;
22289;SDS011;11313;50.116;8.424;2023-07-09T12:36:50;6.47;;;2.72;;
22289;SDS011;11313;50.116;8.424;2023-07-09T12:39:23;6.22;;;2.95;;
22289;SDS011;11313;50.116;8.424;2023-07-09T12:41:50;7.22;;;2.90;;
22289;SDS011;11313;50.116;8.424;2023-07-09T12:44:21;11.18;;;2.97;;
22289;SDS011;11313;50.116;8.424;2023-07-09T12:46:48;7.05;;;3.47;;
22289;SDS011;11313;50.116;8.424;2023-07-09T12:49:37;7.25;;;2.85;;
22289;SDS011;11313;50.116;8.424;2023-07-09T12:52:22;6.88;;;2.83;;
22289;SDS011;11313;50.116;8.424;2023-07-09T12:54:59;7.32;;;3.20;;
22289;SDS011;11313;50.116;8.424;2023-07-09T12:57:27;6.78;;;3.00;;
22289;SDS011;11313;50.116;8.424;2023-07-09T12:59:56;8.98;;;3.45;;
22289;SDS011;11313;50.116;8.424;2023-07-09T13:02:23;6.00;;;2.85;;
22289;SDS011;11313;50.116;8.424;2023-07-09T13:04:57;5.40;;;3.30;;
22289;SDS011;11313;50.116;8.424;2023-07-09T13:07:36;9.27;;;2.90;;
22289;SDS011;11313;50.116;8.424;2023-07-09T13:10:16;6.65;;;2.97;;
22289;SDS011;11313;50.116;8.424;2023-07-09T13:12:45;6.78;;;3.20;;
22289;SDS011;11313;50.116;8.424;2023-07-09T13:15:27;4.40;;;2.83;;
22289;SDS011;11313;50.116;8.424;2023-07-09T13:18:04;10.52;;;3.30;;
22289;SDS011;11313;50.116;8.424;2023-07-09T13:20:32;5.18;;;3.15;;
22289;SDS011;11313;50.116;8.424;2023-07-09T13:22:59;6.63;;;3.40;;
22289;SDS011;11313;50.116;8.424;2023-07-09T13:25:25;7.82;;;3.28;;
22289;SDS011;11313;50.116;8.424;2023-07-09T13:27:51;5.97;;;2.83;;
22289;SDS011;11313;50.116;8.424;2023-07-09T13:30:16;7.82;;;3.08;;
22289;SDS011;11313;50.116;8.424;2023-07-09T13:32:43;5.93;;;2.80;;
22289;SDS011;11313;50.116;8.424;2023-07-09T13:35:14;3.90;;;3.05;;
22289;SDS011;11313;50.116;8.424;2023-07-09T13:37:43;5.40;;;3.40;;
22289;SDS011;11313;50.116;8.424;2023-07-09T13:40:10;5.35;;;3.00;;
22289;SDS011;11313;50.116;8.424;2023-07-09T13:42:41;5.22;;;2.95;;
22289;SDS011;11313;50.116;8.424;2023-07-09T13:45:15;5.18;;;3.13;;
22289;SDS011;11313;50.116;8.424;2023-07-09T13:47:45;4.95;;;2.90;;
22289;SDS011;11313;50.116;8.424;2023-07-09T13:50:12;4.40;;;2.80;;
22289;SDS011;11313;50.116;8.424;2023-07-09T13:52:39;6.30;;;3.08;;
22289;SDS011;11313;50.116;8.424;2023-07-09T13:55:05;5.32;;;3.08;;
22289;SDS011;11313;50.116;8.424;2023-07-09T13:57:34;4.43;;;3.05;;
22289;SDS011;11313;50.116;8.424;2023-07-09T14:00:01;5.15;;;3.00;;
22289;SDS011;11313;50.116;8.424;2023-07-09T14:02:28;5.38;;;2.83;;
22289;SDS011;11313;50.116;8.424;2023-07-09T14:04:57;5.27;;;3.10;;
22289;SDS011;11313;50.116;8.424;2023-07-09T14:09:57;6.55;;;3.35;;
22289;SDS011;11313;50.116;8.424;2023-07-09T14:12:23;4.22;;;3.17;;
22289;SDS011;11313;50.116;8.424;2023-07-09T14:14:49;5.60;;;2.92;;
22289;SDS011;11313;50.116;8.424;2023-07-09T14:17:16;4.78;;;2.95;;
22289;SDS011;11313;50.116;8.424;2023-07-09T14:19:41;4.82;;;2.80;;
22289;SDS011;11313;50.116;8.424;2023-07-09T14:22:33;7.28;;;2.90;;
22289;SDS011;11313;50.116;8.424;2023-07-09T14:25:01;4.20;;;2.97;;
22289;SDS011;11313;50.116;8.424;2023-07-09T14:27:29;4.47;;;2.90;;
22289;SDS011;11313;50.116;8.424;2023-07-09T14:29:54;4.97;;;2.53;;
22289;SDS011;11313;50.116;8.424;2023-07-09T14:32:25;5.00;;;3.30;;
22289;SDS011;11313;50.116;8.424;2023-07-09T14:34:58;3.75;;;2.70;;
22289;SDS011;11313;50.116;8.424;2023-07-09T14:37:23;5.63;;;2.80;;
22289;SDS011;11313;50.116;8.424;2023-07-09T14:39:49;3.85;;;2.65;;
22289;SDS011;11313;50.116;8.424;2023-07-09T14:42:15;6.10;;;3.15;;
22289;SDS011;11313;50.116;8.424;2023-07-09T14:44:41;3.88;;;2.88;;
22289;SDS011;11313;50.116;8.424;2023-07-09T14:47:10;5.22;;;2.88;;
22289;SDS011;11313;50.116;8.424;2023-07-09T14:49:40;3.83;;;2.58;;
22289;SDS011;11313;50.116;8.424;2023-07-09T14:52:10;4.00;;;3.00;;
22289;SDS011;11313;50.116;8.424;2023-07-09T14:54:38;3.53;;;2.65;;
22289;SDS011;11313;50.116;8.424;2023-07-09T14:57:04;5.40;;;2.80;;
22289;SDS011;11313;50.116;8.424;2023-07-09T14:59:48;4.68;;;3.22;;
22289;SDS011;11313;50.116;8.424;2023-07-09T15:05:03;3.72;;;2.78;;
22289;SDS011;11313;50.116;8.424;2023-07-09T15:07:31;5.15;;;2.90;;
22289;SDS011;11313;50.116;8.424;2023-07-09T15:09:58;4.15;;;3.03;;
22289;SDS011;11313;50.116;8.424;2023-07-09T15:12:30;4.43;;;3.00;;
22289;SDS011;11313;50.116;8.424;2023-07-09T15:15:03;5.03;;;2.65;;
22289;SDS011;11313;50.116;8.424;2023-07-09T15:17:51;4.43;;;3.00;;
22289;SDS011;11313;50.116;8.424;2023-07-09T15:20:21;4.20;;;2.97;;
22289;SDS011;11313;50.116;8.424;2023-07-09T15:22:49;4.00;;;2.80;;
22289;SDS011;11313;50.116;8.424;2023-07-09T15:25:16;4.40;;;2.60;;
22289;SDS011;11313;50.116;8.424;2023-07-09T15:27:48;4.82;;;3.13;;
22289;SDS011;11313;50.116;8.424;2023-07-09T15:30:22;4.57;;;3.17;;
22289;SDS011;11313;50.116;8.424;2023-07-09T15:32:54;4.30;;;2.92;;
22289;SDS011;11313;50.116;8.424;2023-07-09T15:35:21;4.05;;;2.92;;
22289;SDS011;11313;50.116;8.424;2023-07-09T15:37:47;4.32;;;3.00;;
22289;SDS011;11313;50.116;8.424;2023-07-09T15:40:21;3.90;;;3.00;;
22289;SDS011;11313;50.116;8.424;2023-07-09T15:42:53;4.10;;;2.92;;
22289;SDS011;11313;50.116;8.424;2023-07-09T15:45:20;3.55;;;3.00;;
22289;SDS011;11313;50.116;8.424;2023-07-09T15:47:47;4.57;;;2.78;;